sensor_id;sensor_type;location;lat;lon;timestamp;P1;durP1;ratioP1;P2;durP2;ratioP2
5591;SDS011;2818;49.790;9.958;2023-01-20T00:01:14;21.77;;;14.40;;
5591;SDS011;2818;49.790;9.958;2023-01-20T00:03:41;22.70;;;14.43;;
5591;SDS011;2818;49.790;9.958;2023-01-20T00:06:09;21.23;;;13.87;;
5591;SDS011;2818;49.790;9.958;2023-01-20T00:08:37;22.13;;;15.30;;
5591;SDS011;2818;49.790;9.958;2023-01-20T00:11:05;27.27;;;16.70;;
5591;SDS011;2818;49.790;9.958;2023-01-20T00:13:33;25.77;;;15.80;;
5591;SDS011;2818;49.790;9.958;2023-01-20T00:16:01;24.80;;;16.23;;
5591;SDS011;2818;49.790;9.958;2023-01-20T00:18:29;29.93;;;16.30;;
5591;SDS011;2818;49.790;9.958;2023-01-20T00:21:00;24.67;;;15.47;;
5591;SDS011;2818;49.790;9.958;2023-01-20T00:23:28;23.47;;;14.40;;
5591;SDS011;2818;49.790;9.958;2023-01-20T00:25:56;22.87;;;14.50;;
5591;SDS011;2818;49.790;9.958;2023-01-20T00:28:22;26.97;;;14.93;;
5591;SDS011;2818;49.790;9.958;2023-01-20T00:30:49;25.23;;;15.33;;
5591;SDS011;2818;49.790;9.958;2023-01-20T00:33:16;26.83;;;15.37;;
5591;SDS011;2818;49.790;9.958;2023-01-20T00:35:43;22.37;;;15.40;;
5591;SDS011;2818;49.790;9.958;2023-01-20T00:38:10;21.20;;;15.27;;
5591;SDS011;2818;49.790;9.958;2023-01-20T00:40:37;27.60;;;16.60;;
5591;SDS011;2818;49.790;9.958;2023-01-20T00:43:04;24.80;;;15.13;;
5591;SDS011;2818;49.790;9.958;2023-01-20T00:45:31;26.50;;;16.27;;
5591;SDS011;2818;49.790;9.958;2023-01-20T00:47:58;23.93;;;15.50;;
5591;SDS011;2818;49.790;9.958;2023-01-20T00:50:25;23.20;;;15.20;;
5591;SDS011;2818;49.790;9.958;2023-01-20T00:52:52;20.63;;;14.90;;
5591;SDS011;2818;49.790;9.958;2023-01-20T00:55:19;28.43;;;15.60;;
5591;SDS011;2818;49.790;9.958;2023-01-20T00:57:45;24.20;;;15.60;;
5591;SDS011;2818;49.790;9.958;2023-01-20T01:00:12;24.00;;;15.20;;
5591;SDS011;2818;49.790;9.958;2023-01-20T01:02:40;23.47;;;16.40;;
5591;SDS011;2818;49.790;9.958;2023-01-20T01:05:07;24.27;;;14.73;;
5591;SDS011;2818;49.790;9.958;2023-01-20T01:07:34;20.67;;;13.87;;
5591;SDS011;2818;49.790;9.958;2023-01-20T01:10:01;24.53;;;14.93;;
5591;SDS011;2818;49.790;9.958;2023-01-20T01:12:28;23.67;;;14.90;;
5591;SDS011;2818;49.790;9.958;2023-01-20T01:14:55;25.73;;;15.30;;
5591;SDS011;2818;49.790;9.958;2023-01-20T01:17:22;23.13;;;14.77;;
5591;SDS011;2818;49.790;9.958;2023-01-20T01:19:52;25.30;;;16.50;;
5591;SDS011;2818;49.790;9.958;2023-01-20T01:22:20;23.10;;;14.83;;
5591;SDS011;2818;49.790;9.958;2023-01-20T01:24:47;23.77;;;14.93;;
5591;SDS011;2818;49.790;9.958;2023-01-20T01:27:14;23.63;;;14.93;;
5591;SDS011;2818;49.790;9.958;2023-01-20T01:29:41;23.33;;;15.63;;
5591;SDS011;2818;49.790;9.958;2023-01-20T01:32:08;26.73;;;14.93;;
5591;SDS011;2818;49.790;9.958;2023-01-20T01:34:35;21.53;;;15.27;;
5591;SDS011;2818;49.790;9.958;2023-01-20T01:37:02;22.20;;;15.23;;
5591;SDS011;2818;49.790;9.958;2023-01-20T01:39:29;23.27;;;14.73;;
5591;SDS011;2818;49.790;9.958;2023-01-20T01:41:55;19.90;;;14.57;;
5591;SDS011;2818;49.790;9.958;2023-01-20T01:44:24;25.67;;;15.17;;
5591;SDS011;2818;49.790;9.958;2023-01-20T01:46:53;23.57;;;15.00;;
5591;SDS011;2818;49.790;9.958;2023-01-20T01:49:22;24.43;;;15.70;;
5591;SDS011;2818;49.790;9.958;2023-01-20T01:51:54;24.07;;;14.70;;
5591;SDS011;2818;49.790;9.958;2023-01-20T01:54:26;23.90;;;15.47;;
5591;SDS011;2818;49.790;9.958;2023-01-20T01:56:57;24.57;;;14.70;;
5591;SDS011;2818;49.790;9.958;2023-01-20T01:59:25;23.60;;;14.73;;
5591;SDS011;2818;49.790;9.958;2023-01-20T02:01:52;23.47;;;15.53;;
5591;SDS011;2818;49.790;9.958;2023-01-20T02:04:21;18.63;;;14.23;;
5591;SDS011;2818;49.790;9.958;2023-01-20T02:07:01;19.70;;;13.87;;
5591;SDS011;2818;49.790;9.958;2023-01-20T02:09:35;21.20;;;14.67;;
5591;SDS011;2818;49.790;9.958;2023-01-20T02:12:05;20.73;;;14.33;;
5591;SDS011;2818;49.790;9.958;2023-01-20T02:14:38;23.97;;;14.80;;
5591;SDS011;2818;49.790;9.958;2023-01-20T02:35:54;24.73;;;15.83;;
5591;SDS011;2818;49.790;9.958;2023-01-20T02:38:44;23.23;;;14.70;;
5591;SDS011;2818;49.790;9.958;2023-01-20T02:41:19;25.93;;;15.27;;
5591;SDS011;2818;49.790;9.958;2023-01-20T02:44:13;24.07;;;16.53;;
5591;SDS011;2818;49.790;9.958;2023-01-20T02:46:51;28.30;;;16.47;;
5591;SDS011;2818;49.790;9.958;2023-01-20T02:49:31;26.67;;;16.20;;
5591;SDS011;2818;49.790;9.958;2023-01-20T02:52:10;26.70;;;15.53;;
5591;SDS011;2818;49.790;9.958;2023-01-20T02:54:41;29.50;;;17.30;;
5591;SDS011;2818;49.790;9.958;2023-01-20T02:57:11;27.13;;;16.07;;
5591;SDS011;2818;49.790;9.958;2023-01-20T02:59:42;27.50;;;16.50;;
5591;SDS011;2818;49.790;9.958;2023-01-20T03:02:14;25.33;;;17.70;;
5591;SDS011;2818;49.790;9.958;2023-01-20T03:04:50;27.93;;;15.93;;
5591;SDS011;2818;49.790;9.958;2023-01-20T03:07:24;28.23;;;16.60;;
5591;SDS011;2818;49.790;9.958;2023-01-20T03:09:55;28.53;;;17.23;;
5591;SDS011;2818;49.790;9.958;2023-01-20T03:12:30;27.33;;;17.13;;
5591;SDS011;2818;49.790;9.958;2023-01-20T03:15:01;28.30;;;17.33;;
5591;SDS011;2818;49.790;9.958;2023-01-20T03:17:29;28.60;;;17.10;;
5591;SDS011;2818;49.790;9.958;2023-01-20T03:19:59;30.73;;;18.67;;
5591;SDS011;2818;49.790;9.958;2023-01-20T03:22:27;29.97;;;18.20;;
5591;SDS011;2818;49.790;9.958;2023-01-20T03:24:56;31.47;;;18.60;;
5591;SDS011;2818;49.790;9.958;2023-01-20T03:27:24;32.10;;;18.40;;
5591;SDS011;2818;49.790;9.958;2023-01-20T03:29:52;30.97;;;18.50;;
5591;SDS011;2818;49.790;9.958;2023-01-20T03:32:19;29.93;;;17.93;;
5591;SDS011;2818;49.790;9.958;2023-01-20T03:34:52;29.00;;;18.53;;
5591;SDS011;2818;49.790;9.958;2023-01-20T03:37:21;29.27;;;18.10;;
5591;SDS011;2818;49.790;9.958;2023-01-20T03:39:48;29.57;;;18.67;;
5591;SDS011;2818;49.790;9.958;2023-01-20T03:44:59;29.10;;;17.90;;
5591;SDS011;2818;49.790;9.958;2023-01-20T03:58:49;32.70;;;18.73;;
5591;SDS011;2818;49.790;9.958;2023-01-20T04:01:20;30.20;;;17.40;;
5591;SDS011;2818;49.790;9.958;2023-01-20T04:03:51;31.97;;;18.43;;
5591;SDS011;2818;49.790;9.958;2023-01-20T04:06:20;28.10;;;17.50;;
5591;SDS011;2818;49.790;9.958;2023-01-20T04:08:53;33.60;;;17.97;;
5591;SDS011;2818;49.790;9.958;2023-01-20T04:11:23;30.90;;;17.63;;
5591;SDS011;2818;49.790;9.958;2023-01-20T04:13:52;34.90;;;17.83;;
5591;SDS011;2818;49.790;9.958;2023-01-20T04:16:20;29.83;;;17.27;;
5591;SDS011;2818;49.790;9.958;2023-01-20T04:18:49;27.53;;;17.93;;
5591;SDS011;2818;49.790;9.958;2023-01-20T04:21:28;36.60;;;18.20;;
5591;SDS011;2818;49.790;9.958;2023-01-20T04:24:04;31.20;;;17.90;;
5591;SDS011;2818;49.790;9.958;2023-01-20T04:26:37;35.13;;;20.30;;
5591;SDS011;2818;49.790;9.958;2023-01-20T04:29:04;32.60;;;19.23;;
5591;SDS011;2818;49.790;9.958;2023-01-20T04:31:37;32.67;;;18.53;;
5591;SDS011;2818;49.790;9.958;2023-01-20T04:34:04;34.33;;;18.97;;
5591;SDS011;2818;49.790;9.958;2023-01-20T04:36:31;36.13;;;18.90;;
5591;SDS011;2818;49.790;9.958;2023-01-20T04:38:58;29.07;;;16.37;;
5591;SDS011;2818;49.790;9.958;2023-01-20T04:41:25;33.37;;;15.90;;
5591;SDS011;2818;49.790;9.958;2023-01-20T04:43:52;24.10;;;16.40;;
5591;SDS011;2818;49.790;9.958;2023-01-20T04:46:18;27.63;;;16.87;;
5591;SDS011;2818;49.790;9.958;2023-01-20T04:48:46;25.60;;;16.43;;
5591;SDS011;2818;49.790;9.958;2023-01-20T04:51:13;26.70;;;16.40;;
5591;SDS011;2818;49.790;9.958;2023-01-20T04:53:40;26.27;;;15.17;;
5591;SDS011;2818;49.790;9.958;2023-01-20T04:56:11;26.13;;;16.40;;
5591;SDS011;2818;49.790;9.958;2023-01-20T04:58:39;25.43;;;15.63;;
5591;SDS011;2818;49.790;9.958;2023-01-20T05:01:07;19.00;;;12.90;;
5591;SDS011;2818;49.790;9.958;2023-01-20T05:03:35;18.60;;;12.13;;
5591;SDS011;2818;49.790;9.958;2023-01-20T05:06:02;19.70;;;12.30;;
5591;SDS011;2818;49.790;9.958;2023-01-20T05:08:31;13.73;;;10.17;;
5591;SDS011;2818;49.790;9.958;2023-01-20T05:10:58;19.63;;;10.63;;
5591;SDS011;2818;49.790;9.958;2023-01-20T05:13:25;16.40;;;9.30;;
5591;SDS011;2818;49.790;9.958;2023-01-20T05:15:52;18.47;;;9.70;;
5591;SDS011;2818;49.790;9.958;2023-01-20T05:18:19;16.33;;;10.20;;
5591;SDS011;2818;49.790;9.958;2023-01-20T05:20:46;12.10;;;8.83;;
5591;SDS011;2818;49.790;9.958;2023-01-20T05:23:15;8.80;;;7.80;;
5591;SDS011;2818;49.790;9.958;2023-01-20T05:25:48;12.63;;;8.13;;
5591;SDS011;2818;49.790;9.958;2023-01-20T05:28:15;9.40;;;6.33;;
5591;SDS011;2818;49.790;9.958;2023-01-20T05:30:42;8.10;;;5.97;;
5591;SDS011;2818;49.790;9.958;2023-01-20T05:33:09;5.67;;;5.17;;
5591;SDS011;2818;49.790;9.958;2023-01-20T05:35:37;5.63;;;4.10;;
5591;SDS011;2818;49.790;9.958;2023-01-20T05:38:04;4.13;;;3.33;;
5591;SDS011;2818;49.790;9.958;2023-01-20T05:40:31;6.17;;;3.60;;
5591;SDS011;2818;49.790;9.958;2023-01-20T05:42:58;6.00;;;3.10;;
5591;SDS011;2818;49.790;9.958;2023-01-20T05:45:26;4.77;;;3.80;;
5591;SDS011;2818;49.790;9.958;2023-01-20T05:47:57;5.07;;;4.67;;
5591;SDS011;2818;49.790;9.958;2023-01-20T05:50:25;5.80;;;3.80;;
5591;SDS011;2818;49.790;9.958;2023-01-20T05:52:53;4.40;;;3.60;;
5591;SDS011;2818;49.790;9.958;2023-01-20T05:55:20;4.80;;;3.30;;
5591;SDS011;2818;49.790;9.958;2023-01-20T05:57:47;6.87;;;3.80;;
5591;SDS011;2818;49.790;9.958;2023-01-20T06:00:14;4.60;;;3.73;;
5591;SDS011;2818;49.790;9.958;2023-01-20T06:02:44;6.60;;;3.90;;
5591;SDS011;2818;49.790;9.958;2023-01-20T06:05:11;4.10;;;3.60;;
5591;SDS011;2818;49.790;9.958;2023-01-20T06:07:38;4.00;;;3.60;;
5591;SDS011;2818;49.790;9.958;2023-01-20T06:10:05;6.87;;;3.63;;
5591;SDS011;2818;49.790;9.958;2023-01-20T06:12:34;6.00;;;3.07;;
5591;SDS011;2818;49.790;9.958;2023-01-20T06:15:00;3.23;;;3.00;;
5591;SDS011;2818;49.790;9.958;2023-01-20T06:17:27;4.50;;;3.20;;
5591;SDS011;2818;49.790;9.958;2023-01-20T06:19:54;3.63;;;2.90;;
5591;SDS011;2818;49.790;9.958;2023-01-20T06:22:21;3.63;;;3.30;;
5591;SDS011;2818;49.790;9.958;2023-01-20T06:24:48;3.20;;;2.90;;
5591;SDS011;2818;49.790;9.958;2023-01-20T06:27:15;3.23;;;2.93;;
5591;SDS011;2818;49.790;9.958;2023-01-20T06:29:42;4.17;;;3.63;;
5591;SDS011;2818;49.790;9.958;2023-01-20T06:32:09;3.97;;;3.37;;
5591;SDS011;2818;49.790;9.958;2023-01-20T06:34:36;4.50;;;3.20;;
5591;SDS011;2818;49.790;9.958;2023-01-20T06:37:03;8.00;;;4.63;;
5591;SDS011;2818;49.790;9.958;2023-01-20T06:39:30;7.10;;;5.80;;
5591;SDS011;2818;49.790;9.958;2023-01-20T06:41:57;9.67;;;7.47;;
5591;SDS011;2818;49.790;9.958;2023-01-20T06:44:25;15.23;;;7.77;;
5591;SDS011;2818;49.790;9.958;2023-01-20T06:46:52;10.63;;;7.10;;
5591;SDS011;2818;49.790;9.958;2023-01-20T06:49:19;15.10;;;8.63;;
5591;SDS011;2818;49.790;9.958;2023-01-20T06:51:46;13.77;;;8.80;;
5591;SDS011;2818;49.790;9.958;2023-01-20T06:54:14;11.70;;;8.90;;
5591;SDS011;2818;49.790;9.958;2023-01-20T06:56:41;13.30;;;8.63;;
5591;SDS011;2818;49.790;9.958;2023-01-20T06:59:09;15.83;;;9.10;;
5591;SDS011;2818;49.790;9.958;2023-01-20T07:01:36;16.83;;;9.90;;
5591;SDS011;2818;49.790;9.958;2023-01-20T07:04:04;11.87;;;8.83;;
5591;SDS011;2818;49.790;9.958;2023-01-20T07:06:38;13.47;;;8.83;;
5591;SDS011;2818;49.790;9.958;2023-01-20T07:09:07;14.30;;;9.13;;
5591;SDS011;2818;49.790;9.958;2023-01-20T07:11:36;21.40;;;9.60;;
5591;SDS011;2818;49.790;9.958;2023-01-20T07:14:03;16.30;;;9.73;;
5591;SDS011;2818;49.790;9.958;2023-01-20T07:16:31;16.17;;;10.30;;
5591;SDS011;2818;49.790;9.958;2023-01-20T07:18:58;18.87;;;10.60;;
5591;SDS011;2818;49.790;9.958;2023-01-20T07:21:26;16.13;;;11.30;;
5591;SDS011;2818;49.790;9.958;2023-01-20T07:23:53;24.33;;;11.33;;
5591;SDS011;2818;49.790;9.958;2023-01-20T07:26:21;22.33;;;11.13;;
5591;SDS011;2818;49.790;9.958;2023-01-20T07:28:49;23.10;;;13.00;;
5591;SDS011;2818;49.790;9.958;2023-01-20T07:31:18;21.63;;;13.03;;
5591;SDS011;2818;49.790;9.958;2023-01-20T07:33:49;23.30;;;13.53;;
5591;SDS011;2818;49.790;9.958;2023-01-20T07:36:17;26.90;;;14.80;;
5591;SDS011;2818;49.790;9.958;2023-01-20T07:38:47;25.60;;;14.30;;
5591;SDS011;2818;49.790;9.958;2023-01-20T07:41:15;27.57;;;15.73;;
5591;SDS011;2818;49.790;9.958;2023-01-20T07:43:47;30.33;;;16.00;;
5591;SDS011;2818;49.790;9.958;2023-01-20T07:46:16;25.43;;;16.43;;
5591;SDS011;2818;49.790;9.958;2023-01-20T07:48:43;28.10;;;16.13;;
5591;SDS011;2818;49.790;9.958;2023-01-20T07:51:11;31.97;;;16.07;;
5591;SDS011;2818;49.790;9.958;2023-01-20T07:53:40;27.90;;;16.00;;
5591;SDS011;2818;49.790;9.958;2023-01-20T07:56:15;31.20;;;16.80;;
5591;SDS011;2818;49.790;9.958;2023-01-20T07:58:50;30.57;;;16.80;;
5591;SDS011;2818;49.790;9.958;2023-01-20T08:01:26;36.37;;;17.77;;
5591;SDS011;2818;49.790;9.958;2023-01-20T08:03:55;34.77;;;17.80;;
5591;SDS011;2818;49.790;9.958;2023-01-20T08:06:23;39.53;;;19.50;;
5591;SDS011;2818;49.790;9.958;2023-01-20T08:08:50;31.73;;;18.53;;
5591;SDS011;2818;49.790;9.958;2023-01-20T08:11:18;31.53;;;19.20;;
5591;SDS011;2818;49.790;9.958;2023-01-20T08:13:47;31.93;;;18.10;;
5591;SDS011;2818;49.790;9.958;2023-01-20T08:16:15;31.93;;;18.57;;
5591;SDS011;2818;49.790;9.958;2023-01-20T08:18:43;31.37;;;18.03;;
5591;SDS011;2818;49.790;9.958;2023-01-20T08:21:24;31.70;;;18.07;;
5591;SDS011;2818;49.790;9.958;2023-01-20T08:23:56;36.33;;;17.80;;
5591;SDS011;2818;49.790;9.958;2023-01-20T08:26:24;31.00;;;17.03;;
5591;SDS011;2818;49.790;9.958;2023-01-20T08:28:55;28.50;;;17.63;;
5591;SDS011;2818;49.790;9.958;2023-01-20T08:31:27;28.90;;;16.60;;
5591;SDS011;2818;49.790;9.958;2023-01-20T08:33:54;29.53;;;17.20;;
5591;SDS011;2818;49.790;9.958;2023-01-20T08:36:24;27.60;;;17.00;;
5591;SDS011;2818;49.790;9.958;2023-01-20T08:38:56;27.80;;;15.90;;
5591;SDS011;2818;49.790;9.958;2023-01-20T08:41:28;27.30;;;15.77;;
5591;SDS011;2818;49.790;9.958;2023-01-20T08:43:58;27.33;;;16.00;;
5591;SDS011;2818;49.790;9.958;2023-01-20T08:46:27;27.50;;;16.37;;
5591;SDS011;2818;49.790;9.958;2023-01-20T08:48:54;26.47;;;15.97;;
5591;SDS011;2818;49.790;9.958;2023-01-20T08:51:25;26.47;;;14.97;;
5591;SDS011;2818;49.790;9.958;2023-01-20T08:53:54;26.43;;;14.77;;
5591;SDS011;2818;49.790;9.958;2023-01-20T08:56:21;23.50;;;15.27;;
5591;SDS011;2818;49.790;9.958;2023-01-20T08:58:48;21.37;;;13.07;;
5591;SDS011;2818;49.790;9.958;2023-01-20T09:01:16;23.10;;;14.57;;
5591;SDS011;2818;49.790;9.958;2023-01-20T09:03:45;24.60;;;14.63;;
5591;SDS011;2818;49.790;9.958;2023-01-20T09:06:31;20.50;;;13.30;;
5591;SDS011;2818;49.790;9.958;2023-01-20T09:09:09;21.90;;;14.40;;
5591;SDS011;2818;49.790;9.958;2023-01-20T09:11:37;25.80;;;15.20;;
5591;SDS011;2818;49.790;9.958;2023-01-20T09:14:05;21.10;;;14.20;;
5591;SDS011;2818;49.790;9.958;2023-01-20T09:16:32;25.30;;;15.20;;
5591;SDS011;2818;49.790;9.958;2023-01-20T09:18:58;24.10;;;15.23;;
5591;SDS011;2818;49.790;9.958;2023-01-20T09:21:25;23.97;;;14.93;;
5591;SDS011;2818;49.790;9.958;2023-01-20T09:23:52;25.63;;;15.70;;
5591;SDS011;2818;49.790;9.958;2023-01-20T09:26:19;26.87;;;16.47;;
5591;SDS011;2818;49.790;9.958;2023-01-20T09:29:00;23.43;;;15.40;;
5591;SDS011;2818;49.790;9.958;2023-01-20T09:31:38;22.77;;;15.10;;
5591;SDS011;2818;49.790;9.958;2023-01-20T09:34:10;23.87;;;15.80;;
5591;SDS011;2818;49.790;9.958;2023-01-20T09:36:44;22.90;;;15.27;;
5591;SDS011;2818;49.790;9.958;2023-01-20T09:39:14;21.90;;;15.07;;
5591;SDS011;2818;49.790;9.958;2023-01-20T09:42:04;23.40;;;14.13;;
5591;SDS011;2818;49.790;9.958;2023-01-20T09:45:37;20.20;;;12.93;;
5591;SDS011;2818;49.790;9.958;2023-01-20T09:48:29;17.77;;;12.13;;
5591;SDS011;2818;49.790;9.958;2023-01-20T09:51:32;14.90;;;11.90;;
5591;SDS011;2818;49.790;9.958;2023-01-20T09:54:46;17.43;;;11.47;;
5591;SDS011;2818;49.790;9.958;2023-01-20T09:57:17;13.43;;;10.43;;
5591;SDS011;2818;49.790;9.958;2023-01-20T09:59:48;16.87;;;11.33;;
5591;SDS011;2818;49.790;9.958;2023-01-20T10:02:22;13.10;;;10.53;;
5591;SDS011;2818;49.790;9.958;2023-01-20T10:04:55;13.60;;;10.80;;
5591;SDS011;2818;49.790;9.958;2023-01-20T10:12:44;22.03;;;13.47;;
5591;SDS011;2818;49.790;9.958;2023-01-20T10:15:19;17.77;;;13.77;;
5591;SDS011;2818;49.790;9.958;2023-01-20T10:17:58;23.07;;;14.97;;
5591;SDS011;2818;49.790;9.958;2023-01-20T10:21:01;23.80;;;15.40;;
5591;SDS011;2818;49.790;9.958;2023-01-20T10:26:20;26.50;;;16.80;;
5591;SDS011;2818;49.790;9.958;2023-01-20T10:29:00;22.70;;;15.40;;
5591;SDS011;2818;49.790;9.958;2023-01-20T10:31:30;23.43;;;15.60;;
5591;SDS011;2818;49.790;9.958;2023-01-20T10:34:05;25.07;;;16.27;;
5591;SDS011;2818;49.790;9.958;2023-01-20T10:36:37;25.00;;;17.23;;
5591;SDS011;2818;49.790;9.958;2023-01-20T10:42:01;30.27;;;16.70;;
5591;SDS011;2818;49.790;9.958;2023-01-20T10:44:33;22.33;;;15.00;;
5591;SDS011;2818;49.790;9.958;2023-01-20T10:52:42;21.33;;;14.60;;
5591;SDS011;2818;49.790;9.958;2023-01-20T10:58:27;22.50;;;13.70;;
5591;SDS011;2818;49.790;9.958;2023-01-20T11:00:57;19.87;;;13.90;;
5591;SDS011;2818;49.790;9.958;2023-01-20T11:03:30;21.30;;;13.33;;
5591;SDS011;2818;49.790;9.958;2023-01-20T11:06:02;24.53;;;14.30;;
5591;SDS011;2818;49.790;9.958;2023-01-20T11:08:31;20.47;;;14.00;;
5591;SDS011;2818;49.790;9.958;2023-01-20T11:10:58;18.30;;;13.13;;
5591;SDS011;2818;49.790;9.958;2023-01-20T11:13:34;22.53;;;16.40;;
5591;SDS011;2818;49.790;9.958;2023-01-20T11:16:09;26.73;;;17.83;;
5591;SDS011;2818;49.790;9.958;2023-01-20T11:18:54;24.13;;;14.60;;
5591;SDS011;2818;49.790;9.958;2023-01-20T11:21:33;20.90;;;14.80;;
5591;SDS011;2818;49.790;9.958;2023-01-20T11:24:48;23.90;;;15.57;;
5591;SDS011;2818;49.790;9.958;2023-01-20T11:27:05;21.67;;;14.27;;
5591;SDS011;2818;49.790;9.958;2023-01-20T11:29:41;23.30;;;15.63;;
5591;SDS011;2818;49.790;9.958;2023-01-20T11:32:27;23.33;;;15.13;;
5591;SDS011;2818;49.790;9.958;2023-01-20T11:35:24;26.30;;;16.43;;
5591;SDS011;2818;49.790;9.958;2023-01-20T11:37:50;21.77;;;14.07;;
5591;SDS011;2818;49.790;9.958;2023-01-20T11:40:19;22.27;;;14.37;;
5591;SDS011;2818;49.790;9.958;2023-01-20T11:42:49;26.37;;;15.43;;
5591;SDS011;2818;49.790;9.958;2023-01-20T11:45:25;29.03;;;15.90;;
5591;SDS011;2818;49.790;9.958;2023-01-20T11:53:17;28.30;;;15.57;;
5591;SDS011;2818;49.790;9.958;2023-01-20T11:55:56;21.50;;;15.73;;
5591;SDS011;2818;49.790;9.958;2023-01-20T11:58:31;25.03;;;16.37;;
5591;SDS011;2818;49.790;9.958;2023-01-20T12:01:18;27.27;;;15.50;;
5591;SDS011;2818;49.790;9.958;2023-01-20T12:09:25;29.93;;;17.43;;
5591;SDS011;2818;49.790;9.958;2023-01-20T12:12:03;27.47;;;15.67;;
5591;SDS011;2818;49.790;9.958;2023-01-20T12:14:47;26.13;;;15.33;;
5591;SDS011;2818;49.790;9.958;2023-01-20T12:17:22;24.13;;;16.00;;
5591;SDS011;2818;49.790;9.958;2023-01-20T12:20:00;26.20;;;15.40;;
5591;SDS011;2818;49.790;9.958;2023-01-20T12:22:47;27.27;;;16.30;;
5591;SDS011;2818;49.790;9.958;2023-01-20T12:25:26;23.10;;;15.20;;
5591;SDS011;2818;49.790;9.958;2023-01-20T12:28:02;23.17;;;16.73;;
5591;SDS011;2818;49.790;9.958;2023-01-20T12:30:38;25.40;;;14.77;;
5591;SDS011;2818;49.790;9.958;2023-01-20T12:33:29;26.23;;;16.10;;
5591;SDS011;2818;49.790;9.958;2023-01-20T12:44:17;22.27;;;15.37;;
5591;SDS011;2818;49.790;9.958;2023-01-20T12:50:58;21.07;;;15.17;;
5591;SDS011;2818;49.790;9.958;2023-01-20T12:59:05;25.70;;;16.60;;
5591;SDS011;2818;49.790;9.958;2023-01-20T13:20:49;24.43;;;15.77;;
5591;SDS011;2818;49.790;9.958;2023-01-20T13:23:19;18.73;;;13.83;;
5591;SDS011;2818;49.790;9.958;2023-01-20T13:25:53;22.67;;;16.80;;
5591;SDS011;2818;49.790;9.958;2023-01-20T13:28:22;17.50;;;13.53;;
5591;SDS011;2818;49.790;9.958;2023-01-20T13:30:52;23.60;;;14.17;;
5591;SDS011;2818;49.790;9.958;2023-01-20T13:36:17;20.13;;;14.27;;
5591;SDS011;2818;49.790;9.958;2023-01-20T13:38:49;22.00;;;14.93;;
5591;SDS011;2818;49.790;9.958;2023-01-20T13:41:46;19.17;;;14.50;;
5591;SDS011;2818;49.790;9.958;2023-01-20T13:44:34;20.03;;;14.93;;
5591;SDS011;2818;49.790;9.958;2023-01-20T13:47:03;23.70;;;16.00;;
5591;SDS011;2818;49.790;9.958;2023-01-20T13:49:54;21.87;;;15.23;;
5591;SDS011;2818;49.790;9.958;2023-01-20T14:00:39;22.50;;;15.50;;
5591;SDS011;2818;49.790;9.958;2023-01-20T14:03:10;21.33;;;14.80;;
5591;SDS011;2818;49.790;9.958;2023-01-20T14:08:29;20.23;;;14.57;;
5591;SDS011;2818;49.790;9.958;2023-01-20T14:13:41;22.33;;;15.53;;
5591;SDS011;2818;49.790;9.958;2023-01-20T14:16:26;24.97;;;15.80;;
5591;SDS011;2818;49.790;9.958;2023-01-20T14:18:58;22.17;;;14.97;;
5591;SDS011;2818;49.790;9.958;2023-01-20T14:21:28;18.47;;;13.57;;
5591;SDS011;2818;49.790;9.958;2023-01-20T14:24:04;19.30;;;13.80;;
5591;SDS011;2818;49.790;9.958;2023-01-20T14:26:31;20.60;;;14.00;;
5591;SDS011;2818;49.790;9.958;2023-01-20T14:28:59;21.93;;;14.50;;
5591;SDS011;2818;49.790;9.958;2023-01-20T14:31:32;19.37;;;14.43;;
5591;SDS011;2818;49.790;9.958;2023-01-20T14:34:25;20.80;;;14.17;;
5591;SDS011;2818;49.790;9.958;2023-01-20T14:36:58;23.20;;;14.90;;
5591;SDS011;2818;49.790;9.958;2023-01-20T14:39:29;19.47;;;13.70;;
5591;SDS011;2818;49.790;9.958;2023-01-20T14:41:56;20.07;;;14.63;;
5591;SDS011;2818;49.790;9.958;2023-01-20T14:44:26;24.20;;;15.70;;
5591;SDS011;2818;49.790;9.958;2023-01-20T14:46:58;23.70;;;16.40;;
5591;SDS011;2818;49.790;9.958;2023-01-20T14:49:29;22.00;;;16.23;;
5591;SDS011;2818;49.790;9.958;2023-01-20T14:52:11;29.50;;;17.20;;
5591;SDS011;2818;49.790;9.958;2023-01-20T14:54:44;27.43;;;16.30;;
5591;SDS011;2818;49.790;9.958;2023-01-20T15:00:01;24.53;;;16.30;;
5591;SDS011;2818;49.790;9.958;2023-01-20T15:02:34;26.17;;;16.60;;
5591;SDS011;2818;49.790;9.958;2023-01-20T15:11:10;28.80;;;15.77;;
5591;SDS011;2818;49.790;9.958;2023-01-20T15:16:22;24.40;;;15.57;;
5591;SDS011;2818;49.790;9.958;2023-01-20T15:21:41;23.60;;;15.87;;
5591;SDS011;2818;49.790;9.958;2023-01-20T15:24:19;26.97;;;16.10;;
5591;SDS011;2818;49.790;9.958;2023-01-20T15:26:56;25.87;;;15.70;;
5591;SDS011;2818;49.790;9.958;2023-01-20T15:29:26;25.60;;;15.87;;
5591;SDS011;2818;49.790;9.958;2023-01-20T15:31:59;28.17;;;16.77;;
5591;SDS011;2818;49.790;9.958;2023-01-20T15:34:28;29.00;;;16.27;;
5591;SDS011;2818;49.790;9.958;2023-01-20T15:36:55;26.40;;;15.43;;
5591;SDS011;2818;49.790;9.958;2023-01-20T15:39:23;27.50;;;16.03;;
5591;SDS011;2818;49.790;9.958;2023-01-20T15:41:54;26.70;;;15.27;;
5591;SDS011;2818;49.790;9.958;2023-01-20T15:44:23;26.07;;;15.53;;
5591;SDS011;2818;49.790;9.958;2023-01-20T15:46:51;26.33;;;15.23;;
5591;SDS011;2818;49.790;9.958;2023-01-20T15:49:22;32.03;;;17.03;;
5591;SDS011;2818;49.790;9.958;2023-01-20T15:51:50;26.47;;;14.20;;
5591;SDS011;2818;49.790;9.958;2023-01-20T15:54:17;24.27;;;15.73;;
5591;SDS011;2818;49.790;9.958;2023-01-20T15:56:44;29.53;;;17.27;;
5591;SDS011;2818;49.790;9.958;2023-01-20T15:59:12;27.50;;;17.10;;
5591;SDS011;2818;49.790;9.958;2023-01-20T16:01:40;32.30;;;17.37;;
5591;SDS011;2818;49.790;9.958;2023-01-20T16:04:08;26.60;;;15.93;;
5591;SDS011;2818;49.790;9.958;2023-01-20T16:06:35;29.27;;;16.37;;
5591;SDS011;2818;49.790;9.958;2023-01-20T16:09:10;31.87;;;17.37;;
5591;SDS011;2818;49.790;9.958;2023-01-20T16:12:02;29.40;;;17.07;;
5591;SDS011;2818;49.790;9.958;2023-01-20T16:14:29;30.73;;;17.03;;
5591;SDS011;2818;49.790;9.958;2023-01-20T16:16:56;29.03;;;17.67;;
5591;SDS011;2818;49.790;9.958;2023-01-20T16:19:23;31.20;;;19.00;;
5591;SDS011;2818;49.790;9.958;2023-01-20T16:21:49;31.70;;;18.67;;
5591;SDS011;2818;49.790;9.958;2023-01-20T16:24:16;31.67;;;18.33;;
5591;SDS011;2818;49.790;9.958;2023-01-20T16:26:44;34.13;;;18.73;;
5591;SDS011;2818;49.790;9.958;2023-01-20T16:29:12;28.93;;;17.87;;
5591;SDS011;2818;49.790;9.958;2023-01-20T16:31:39;32.60;;;17.87;;
5591;SDS011;2818;49.790;9.958;2023-01-20T16:34:06;29.27;;;17.57;;
5591;SDS011;2818;49.790;9.958;2023-01-20T16:36:33;30.00;;;17.93;;
5591;SDS011;2818;49.790;9.958;2023-01-20T16:39:00;32.10;;;19.00;;
5591;SDS011;2818;49.790;9.958;2023-01-20T16:41:27;30.40;;;18.37;;
5591;SDS011;2818;49.790;9.958;2023-01-20T16:43:56;26.77;;;16.37;;
5591;SDS011;2818;49.790;9.958;2023-01-20T16:46:27;30.40;;;17.63;;
5591;SDS011;2818;49.790;9.958;2023-01-20T16:48:56;30.80;;;17.03;;
5591;SDS011;2818;49.790;9.958;2023-01-20T16:51:28;30.13;;;16.20;;
5591;SDS011;2818;49.790;9.958;2023-01-20T16:53:56;31.00;;;16.30;;
5591;SDS011;2818;49.790;9.958;2023-01-20T16:56:25;31.20;;;16.73;;
5591;SDS011;2818;49.790;9.958;2023-01-20T16:58:54;31.97;;;16.90;;
5591;SDS011;2818;49.790;9.958;2023-01-20T17:01:23;28.43;;;16.97;;
5591;SDS011;2818;49.790;9.958;2023-01-20T17:03:51;31.50;;;17.87;;
5591;SDS011;2818;49.790;9.958;2023-01-20T17:06:21;29.07;;;16.93;;
5591;SDS011;2818;49.790;9.958;2023-01-20T17:08:53;30.97;;;17.77;;
5591;SDS011;2818;49.790;9.958;2023-01-20T17:13:50;37.03;;;19.30;;
5591;SDS011;2818;49.790;9.958;2023-01-20T17:16:18;32.47;;;17.97;;
5591;SDS011;2818;49.790;9.958;2023-01-20T17:18:49;31.07;;;18.33;;
5591;SDS011;2818;49.790;9.958;2023-01-20T17:21:17;30.97;;;18.40;;
5591;SDS011;2818;49.790;9.958;2023-01-20T17:23:49;34.33;;;19.67;;
5591;SDS011;2818;49.790;9.958;2023-01-20T17:26:17;36.63;;;19.10;;
5591;SDS011;2818;49.790;9.958;2023-01-20T17:28:45;39.33;;;19.40;;